Hovedside
METAR-TAF:

METAR-TAF

Lufthavner :

Svalbard lufthavn. Longyear

Longyearbyen, Norge

breddegrad: 78-15N, lengdegrad: 015-28E, høyde over havet: 2 m

Gjeldene værobservasjon

Denne rapporten ble laget for 21 minutter siden, klokken 04:50 UTC
Vind 4 kt fra skiftende retning
Temperatur -1°C
Luftfuktighet 74%
Trykk 1025 hPa
Sikt 10 km eller mer
Få skyer i en høyde av 2500 ft
Brutte skyer i en høyde av 3000 ft

METAR: ENSB 250450Z VRB04KT 9999 FEW025 BKN030 M01/M05 Q1025 NOSIG RMK WIND 1400FT 22008KT

Tid: 07:11 (05:11 UTC)

Varsel

Varsel gyldig fra 25. klokken 00 UTC til 25. klokken 24 UTC
Vind 12 kt fra Vest-sørvest
Sikt 10 km eller mer
Få skyer i en høyde av 1500 ft
Brutte skyer i en høyde av 3000 ft
Midlertidig
fra 25. klokken 00 UTC til 25. klokken 24 UTC
Vind 5 kt fra skiftende retning
Sikt: 2000 m
i en høyde av 800 ft
snø

TAF: ENSB 2500/2524 25012KT 9999 FEW015 BKN030 TEMPO 2500/2524 VRB05KT 2000 SN VV008

Værobservasjoner og værvarsel for over 4000 flyplasser (METAR- og TAF-rapporter).

Tilgjengelige stasjoner er representert av de røde og gule prikkene på kartet.

Hold musepekeren over prikken for å se navnet på stasjonen.

Klikk så for å se værobservasjoner og -varsler.

For å forandre kartet kan du klikke på den grønne knappen med svart kryss for å zoome inn, på den grønne knappen med strek for å zoome ut, eller på de grønne pilene for å se tilstøtende kart.


METAR-TAF: